May 6, 2016
Temp
 
55.8 °F
 
Dew Pt.
 
54.4 °F
 
Humidity
 
95%
 
Pressure
 
1011.8 hPa 
  steady
Wind
 
0.0 mph 
    NNW
Rain
 
0.10 in 
  0.00 in/hr
UV index
 
---  
 
Solar rad.
 
100 W/m²
 
This
Afternoon
This Afternoon: Scattered showers and thunderstorms.  Mostly cloudy, with a high near 66. Southwest wind around 10 mph, with gusts as high as 15 mph.  Chance of precipitation is 50%.
Scattered
Showers

Tonight

Tonight: Scattered showers and thunderstorms before 11pm, then a slight chance of showers.  Mostly cloudy, with a low around 53. South southwest wind 5 to 10 mph, with gusts as high as 15 mph.  Chance of precipitation is 50%.
Scattered
Showers then
Slight Chance
Showers
Hi 66 °F Lo 53 °F
Statistics - 5/06/2016
Max Temp 62.3 °F  11:10 am
Min Temp 50.6 °F  4:40 am
Max Dew Pt 55.5 °F  3:45 pm
Min Dew Pt 47.2 °F  12:55 pm
Max Pressure 1012.9 hPa  12:45 pm
Min Pressure 1009.6 hPa  4:30 am
Max Wind 12 mph  11:45 am
Max UV —   —
Max Solar —   —
Max Rainfall Rate 0.87 in/hr  12:50 pm
Total Precipitation 0.10 in  
Current Temp 55.9 °F  5:20 pm
Temp 24hr ago 60.4 °F  5:20 pm
Difference -4.5 °F  
Temp Rate -0.6 °F/hr  
Pressure Rate -0.1 hPa/hr  
time temp dew pt pressure uv solar wind wind speed rainfall rate
00:00 54.5 °F 52.5 °F 1011.6 hPa  WSW 1 mph    0.06 in/hr
00:05 54.4 °F 52.4 °F 1011.5 hPa  Calm     0.05 in/hr
00:10 54.3 °F 52.3 °F 1011.5 hPa  Calm    
00:15 54.3 °F 52.3 °F 1011.4 hPa  Calm    
00:20 54.1 °F 52.1 °F 1011.4 hPa  Calm    
00:25 53.9 °F 51.9 °F 1011.4 hPa  Calm    
00:30 53.7 °F 51.7 °F 1011.2 hPa  Calm    
00:35 53.5 °F 51.5 °F 1011.2 hPa  Calm    
00:40 53.4 °F 51.4 °F 1011.3 hPa  Calm    
00:45 53.2 °F 51.2 °F 1011.3 hPa  Calm    
00:50 53.0 °F 51.0 °F 1011.2 hPa  Calm    
00:55 52.9 °F 50.9 °F 1011.1 hPa  NE 2 mph   
01:00 52.7 °F 50.7 °F 1011.1 hPa  NE 2 mph   
01:05 52.7 °F 51.0 °F 1011.0 hPa  NE 1 mph   
01:10 52.7 °F 50.7 °F 1011.0 hPa  NE 1 mph   
01:15 52.7 °F 50.7 °F 1010.9 hPa  Calm    
01:20 52.8 °F 50.8 °F 1010.9 hPa  Calm    
01:25 52.7 °F 51.0 °F 1010.8 hPa  Calm    
01:30 52.6 °F 50.9 °F 1010.8 hPa  NE 1 mph   
01:35 52.5 °F 50.5 °F 1010.7 hPa  Calm    
01:40 52.4 °F 50.4 °F 1010.6 hPa  NNE 1 mph   
01:45 52.3 °F 50.3 °F 1010.7 hPa  Calm    
01:50 52.1 °F 50.1 °F 1010.6 hPa  Calm    
01:55 52.0 °F 50.0 °F 1010.5 hPa  Calm    
02:00 51.9 °F 49.9 °F 1010.5 hPa  Calm    
02:05 51.8 °F 49.8 °F 1010.4 hPa  Calm    
02:10 51.7 °F 49.7 °F 1010.4 hPa  Calm    
02:15 51.5 °F 49.5 °F 1010.3 hPa  NNE 1 mph   
02:20 51.4 °F 49.4 °F 1010.3 hPa  Calm    
02:25 51.4 °F 49.4 °F 1010.2 hPa  Calm    
02:30 51.5 °F 49.8 °F 1010.2 hPa  Calm    
02:35 51.5 °F 49.8 °F 1010.2 hPa  W 1 mph   
02:40 51.5 °F 49.8 °F 1010.1 hPa  NNW 1 mph   
02:45 51.5 °F 49.8 °F 1010.2 hPa  Calm    
02:50 51.5 °F 49.8 °F 1010.1 hPa  Calm    
02:55 51.5 °F 49.8 °F 1010.1 hPa  Calm    
03:00 51.5 °F 49.8 °F 1010.0 hPa  NE 1 mph   
03:05 51.5 °F 49.8 °F 1009.9 hPa  Calm    
03:10 51.4 °F 49.7 °F 1009.9 hPa  NE 1 mph   
03:15 51.3 °F 49.6 °F 1009.9 hPa  Calm    
03:20 51.2 °F 49.5 °F 1009.8 hPa  NE 1 mph   
03:25 51.2 °F 49.5 °F 1009.8 hPa  NNE 1 mph   
03:30 51.1 °F 49.4 °F 1009.7 hPa  Calm    
03:35 51.1 °F 49.4 °F 1009.8 hPa  Calm    
03:40 51.0 °F 49.3 °F 1009.7 hPa  Calm    
03:45 51.1 °F 49.4 °F 1009.7 hPa  NNE 1 mph   
03:50 51.0 °F 49.3 °F 1009.7 hPa  Calm    
03:55 51.0 °F 49.3 °F 1009.6 hPa  NE 2 mph   
04:00 51.0 °F 49.3 °F 1009.6 hPa  ENE 1 mph   
04:05 50.9 °F 49.2 °F 1009.6 hPa  Calm    
04:10 50.8 °F 49.1 °F 1009.6 hPa  Calm    
04:15 50.8 °F 49.1 °F 1009.6 hPa  Calm    
04:20 50.8 °F 49.1 °F 1009.6 hPa  Calm    
04:25 50.8 °F 49.1 °F 1009.6 hPa  Calm    
04:30 50.7 °F 49.0 °F 1009.6 hPa  Calm    
04:35 50.7 °F 49.0 °F 1009.7 hPa  Calm    
04:40 50.7 °F 49.0 °F 1009.7 hPa  Calm    
04:45 50.7 °F 49.0 °F 1009.6 hPa  Calm    
04:50 50.8 °F 49.1 °F 1009.7 hPa  Calm    
04:55 50.8 °F 49.1 °F 1009.7 hPa  Calm    
05:00 50.9 °F 49.2 °F 1009.7 hPa  Calm    
05:05 50.9 °F 49.2 °F 1009.8 hPa  Calm    
05:10 51.0 °F 49.3 °F 1009.8 hPa  Calm    
05:15 51.3 °F 49.6 °F 1009.8 hPa  Calm    
05:20 51.5 °F 49.8 °F 1009.8 hPa  ENE 1 mph   
05:25 51.7 °F 50.0 °F 1009.8 hPa  Calm    
05:30 51.8 °F 50.1 °F 1009.9 hPa  NE 2 mph   
05:35 51.9 °F 50.2 °F 1009.9 hPa  NE 1 mph   
05:40 51.9 °F 50.2 °F 1010.0 hPa  NE 1 mph   
05:45 51.9 °F 50.2 °F 1010.0 hPa  NE 1 mph   
05:50 51.9 °F 50.2 °F 1010.0 hPa  NE 1 mph   
05:55 51.9 °F 50.2 °F 1010.1 hPa  NE 1 mph   
06:00 52.1 °F 50.4 °F 1010.1 hPa  Calm    
06:05 52.3 °F 50.6 °F 1010.1 hPa  NE 1 mph   
06:10 52.4 °F 50.7 °F 1010.2 hPa  Calm    
06:15 52.5 °F 50.8 °F 1010.3 hPa  Calm    
06:20 52.6 °F 50.9 °F 1010.4 hPa  Calm    
06:25 52.7 °F 51.0 °F 1010.5 hPa  Calm    
06:30 52.8 °F 51.1 °F 1010.6 hPa  Calm    
06:35 52.8 °F 51.4 °F 1010.6 hPa  Calm    
06:40 52.7 °F 51.3 °F 1010.6 hPa  Calm    
06:45 53.0 °F 51.6 °F 1010.6 hPa  NE 1 mph   
06:50 53.0 °F 51.6 °F 1010.6 hPa  Calm    
06:55 53.1 °F 51.7 °F 1010.7 hPa  Calm    
07:00 53.1 °F 51.7 °F 1010.8 hPa  Calm    
07:05 53.1 °F 51.7 °F 1010.7 hPa  Calm    
07:10 53.3 °F 51.9 °F 1010.8 hPa  Calm    
07:15 53.4 °F 52.0 °F 1010.9 hPa  Calm    
07:20 53.5 °F 52.1 °F 1010.9 hPa  Calm    
07:25 53.8 °F 52.4 °F 1010.9 hPa  Calm    
07:30 54.0 °F 52.6 °F 1010.9 hPa  Calm    
07:35 54.1 °F 52.7 °F 1011.0 hPa  Calm    
07:40 54.1 °F 52.7 °F 1011.1 hPa  Calm    
07:45 54.1 °F 52.4 °F 1011.1 hPa  Calm    
07:50 54.2 °F 52.5 °F 1011.1 hPa  Calm    
07:55 54.4 °F 52.7 °F 1011.1 hPa  Calm    
08:00 54.6 °F 52.9 °F 1011.2 hPa  E 1 mph   
08:05 54.5 °F 52.5 °F 1011.2 hPa  ESE 2 mph   
08:10 54.7 °F 52.7 °F 1011.2 hPa  ENE 2 mph   
08:15 54.8 °F 52.5 °F 1011.3 hPa  Calm    
08:20 55.0 °F 52.4 °F 1011.3 hPa  Calm    
08:25 55.3 °F 52.7 °F 1011.4 hPa  Calm    
08:30 55.4 °F 52.5 °F 1011.3 hPa  Calm    
08:35 55.6 °F 52.7 °F 1011.4 hPa  Calm    
08:40 55.8 °F 52.9 °F 1011.5 hPa  Calm    
08:45 56.0 °F 52.5 °F 1011.5 hPa  Calm    
08:50 56.3 °F 52.8 °F 1011.5 hPa  Calm    
08:55 56.6 °F 53.1 °F 1011.5 hPa  E 2 mph   
09:00 56.8 °F 53.3 °F 1011.5 hPa  ESE 1 mph   
09:05 56.7 °F 52.9 °F 1011.5 hPa  ESE 1 mph   
09:10 57.0 °F 53.2 °F 1011.4 hPa  ESE 1 mph   
09:15 57.1 °F 53.3 °F 1011.5 hPa  ESE 1 mph   
09:20 57.2 °F 52.7 °F 1011.5 hPa  S 1 mph   
09:25 57.4 °F 52.3 °F 1011.5 hPa  Calm    
09:30 57.9 °F 52.8 °F 1011.6 hPa  Calm    
09:35 58.1 °F 53.0 °F 1011.5 hPa  Calm    
09:40 58.4 °F 52.9 °F 1011.5 hPa  Calm    
09:45 59.4 °F 54.9 °F 1011.6 hPa  ESE 1 mph   
09:50 60.0 °F 54.1 °F 1011.6 hPa  SSE 2 mph   
09:55 60.7 °F 54.5 °F 1011.6 hPa  WSW 2 mph   
10:00 60.9 °F 54.3 °F 1011.5 hPa  SSW 2 mph   
10:05 60.7 °F 54.1 °F 1011.5 hPa  SW 3 mph   
10:10 61.0 °F 54.1 °F 1011.6 hPa  SSW 3 mph   
10:15 61.5 °F 53.9 °F 1011.6 hPa  W 4 mph   
10:20 62.0 °F 55.4 °F 1011.6 hPa  W 4 mph   
10:25 62.2 °F 54.5 °F 1011.6 hPa  WSW 6 mph   
10:30 62.0 °F 53.6 °F 1011.6 hPa  SW 4 mph   
10:35 61.6 °F 54.3 °F 1011.7 hPa  SSW 4 mph   
10:40 61.2 °F 53.2 °F 1011.8 hPa  SW 6 mph   
10:45 61.4 °F 54.5 °F 1011.8 hPa  WSW 6 mph   
10:50 61.4 °F 53.8 °F 1011.9 hPa  WSW 6 mph   
10:55 61.5 °F 52.8 °F 1011.8 hPa  WSW 4 mph   
11:00 61.6 °F 53.6 °F 1011.8 hPa  SW 5 mph   
11:05 62.1 °F 53.3 °F 1011.9 hPa  SW 7 mph   
11:10 62.2 °F 53.4 °F 1011.9 hPa  SW 7 mph   
11:15 61.9 °F 53.5 °F 1011.9 hPa  W 4 mph   
11:20 61.4 °F 53.4 °F 1011.9 hPa  WSW 7 mph   
11:25 61.1 °F 53.8 °F 1011.9 hPa  SW 8 mph   
11:30 60.8 °F 53.2 °F 1011.9 hPa  WSW 9 mph   
11:35 60.4 °F 52.8 °F 1011.9 hPa  WSW 6 mph   
11:40 60.4 °F 53.5 °F 1012.0 hPa  WSW 12 mph   
11:45 60.0 °F 52.8 °F 1012.1 hPa  WSW 12 mph   
11:50 59.8 °F 51.5 °F 1012.1 hPa  WSW 9 mph   
11:55 59.5 °F 51.6 °F 1012.2 hPa  WSW 7 mph   
12:00 59.8 °F 52.2 °F 1012.2 hPa  WSW 7 mph   
12:05 60.2 °F 52.2 °F 1012.2 hPa  W 5 mph   
12:10 60.2 °F 52.2 °F 1012.3 hPa  WNW 1 mph   
12:15 60.4 °F 52.4 °F 1012.3 hPa  SE 2 mph   
12:20 60.5 °F 52.5 °F 1012.3 hPa  S 3 mph   
12:25 60.9 °F 53.3 °F 1012.2 hPa  E 7 mph   
12:30 61.1 °F 53.1 °F 1012.2 hPa  E 7 mph   
12:35 60.9 °F 52.2 °F 1012.4 hPa  SSE 1 mph   
12:40 60.5 °F 52.9 °F 1012.4 hPa  Calm    
12:45 59.6 °F 52.0 °F 1012.8 hPa  W 9 mph   
12:50 55.9 °F 48.4 °F 1012.8 hPa  WNW 9 mph    0.87 in/hr
12:55 52.2 °F 47.2 °F 1012.6 hPa  NW 1 mph    0.07 in/hr
13:00 50.8 °F 47.4 °F 1012.6 hPa  NW 5 mph    0.04 in/hr
13:05 51.1 °F 48.3 °F 1012.5 hPa  Calm    
13:10 51.3 °F 48.8 °F 1012.4 hPa  Calm    
13:15 51.7 °F 49.2 °F 1012.4 hPa  Calm    
13:20 51.8 °F 49.3 °F 1012.4 hPa  Calm    
13:25 52.0 °F 49.7 °F 1012.4 hPa  Calm    
13:30 52.2 °F 49.9 °F 1012.4 hPa  Calm    
13:35 52.5 °F 50.5 °F 1012.3 hPa  Calm    
13:40 52.8 °F 50.8 °F 1012.2 hPa  Calm    
13:45 53.0 °F 51.0 °F 1012.3 hPa  Calm    
13:50 53.2 °F 51.2 °F 1012.4 hPa  Calm    
13:55 53.4 °F 51.4 °F 1012.3 hPa  Calm    
14:00 53.6 °F 51.9 °F 1012.2 hPa  Calm    
14:05 53.8 °F 52.1 °F 1012.2 hPa  Calm    
14:10 54.1 °F 52.4 °F 1012.2 hPa  Calm    
14:15 54.3 °F 52.9 °F 1012.1 hPa  Calm    
14:20 54.4 °F 52.7 °F 1012.2 hPa  Calm    
14:25 54.5 °F 53.1 °F 1012.1 hPa  Calm    
14:30 54.8 °F 53.1 °F 1012.1 hPa  Calm    
14:35 54.9 °F 53.2 °F 1012.1 hPa  Calm    
14:40 55.2 °F 53.8 °F 1012.0 hPa  Calm    
14:45 55.7 °F 54.3 °F 1012.1 hPa  Calm    
14:50 55.8 °F 54.4 °F 1012.1 hPa  Calm    
14:55 55.9 °F 54.2 °F 1012.1 hPa  Calm    
15:00 55.9 °F 54.2 °F 1012.1 hPa  Calm    
15:05 56.1 °F 54.4 °F 1012.1 hPa  Calm    
15:10 56.2 °F 54.5 °F 1012.1 hPa  Calm    
15:15 56.3 °F 54.6 °F 1012.0 hPa  Calm    
15:20 56.4 °F 54.7 °F 1012.1 hPa  Calm    
15:25 56.2 °F 54.5 °F 1012.0 hPa  Calm    
15:30 56.2 °F 54.5 °F 1011.9 hPa  Calm    
15:35 56.4 °F 54.7 °F 1012.0 hPa  Calm    
15:40 56.6 °F 54.9 °F 1011.9 hPa  Calm    
15:45 56.9 °F 55.5 °F 1011.8 hPa  Calm    
15:50 56.8 °F 55.1 °F 1011.7 hPa  Calm    
15:55 56.8 °F 55.1 °F 1011.6 hPa  Calm    
16:00 56.7 °F 55.0 °F 1011.7 hPa  Calm    
16:05 56.8 °F 54.8 °F 1011.7 hPa  Calm    
16:10 56.7 °F 54.7 °F 1011.7 hPa  Calm    
16:15 56.4 °F 54.1 °F 1011.7 hPa  Calm    
16:20 56.4 °F 54.4 °F 1011.9 hPa  Calm    
16:25 56.2 °F 53.9 °F 1011.9 hPa  Calm    
16:30 56.0 °F 54.0 °F 1011.9 hPa  Calm    
16:35 55.7 °F 53.7 °F 1011.9 hPa  Calm    
16:40 55.7 °F 53.7 °F 1011.9 hPa  Calm    
16:45 55.7 °F 54.0 °F 1011.9 hPa  Calm    
16:50 55.8 °F 54.1 °F 1012.0 hPa  Calm    
16:55 56.0 °F 54.3 °F 1012.0 hPa  Calm    
17:00 56.1 °F 54.4 °F 1012.0 hPa  Calm    
17:05 56.0 °F 54.3 °F 1012.0 hPa  Calm    
17:10 55.9 °F 54.2 °F 1012.0 hPa  Calm    
17:15 55.9 °F 54.5 °F 1012.0 hPa  Calm    
17:20 55.9 °F 54.5 °F 1012.0 hPa  Calm